Map

Track Data

SID SEASON NUMBER BASIN SUBBASIN NAME ISO_TIME NATURE LAT LON WMO_WIND WMO_PRES WMO_AGENCY TRACK_TYPE DIST2LAND LANDFALL IFLAG USA_AGENCY USA_ATCF_ID USA_LAT USA_LON USA_RECORD USA_STATUS USA_WIND USA_PRES USA_SSHS USA_R34_NE USA_R34_SE USA_R34_SW USA_R34_NW USA_R50_NE USA_R50_SE USA_R50_SW USA_R50_NW USA_R64_NE USA_R64_SE USA_R64_SW USA_R64_NW USA_POCI USA_ROCI USA_RMW USA_EYE TOKYO_LAT TOKYO_LON TOKYO_GRADE TOKYO_WIND TOKYO_PRES TOKYO_R50_DIR TOKYO_R50_LONG TOKYO_R50_SHORT TOKYO_R30_DIR TOKYO_R30_LONG TOKYO_R30_SHORT TOKYO_LAND CMA_LAT CMA_LON CMA_CAT CMA_WIND CMA_PRES HKO_LAT HKO_LON HKO_CAT HKO_WIND HKO_PRES NEWDELHI_LAT NEWDELHI_LON NEWDELHI_GRADE NEWDELHI_WIND NEWDELHI_PRES NEWDELHI_CI NEWDELHI_DP NEWDELHI_POCI REUNION_LAT REUNION_LON REUNION_TYPE REUNION_WIND REUNION_PRES REUNION_TNUM REUNION_CI REUNION_RMW REUNION_R34_NE REUNION_R34_SE REUNION_R34_SW REUNION_R34_NW REUNION_R50_NE REUNION_R50_SE REUNION_R50_SW REUNION_R50_NW REUNION_R64_NE REUNION_R64_SE REUNION_R64_SW REUNION_R64_NW BOM_LAT BOM_LON BOM_TYPE BOM_WIND BOM_PRES BOM_TNUM BOM_CI BOM_RMW BOM_R34_NE BOM_R34_SE BOM_R34_SW BOM_R34_NW BOM_R50_NE BOM_R50_SE BOM_R50_SW BOM_R50_NW BOM_R64_NE BOM_R64_SE BOM_R64_SW BOM_R64_NW BOM_ROCI BOM_POCI BOM_EYE BOM_POS_METHOD BOM_PRES_METHOD NADI_LAT NADI_LON NADI_CAT NADI_WIND NADI_PRES WELLINGTON_LAT WELLINGTON_LON WELLINGTON_WIND WELLINGTON_PRES DS824_LAT DS824_LON DS824_STAGE DS824_WIND DS824_PRES TD9636_LAT TD9636_LON TD9636_STAGE TD9636_WIND TD9636_PRES TD9635_LAT TD9635_LON TD9635_WIND TD9635_PRES TD9635_ROCI NEUMANN_LAT NEUMANN_LON NEUMANN_CLASS NEUMANN_WIND NEUMANN_PRES MLC_LAT MLC_LON MLC_CLASS MLC_WIND MLC_PRES USA_GUST BOM_GUST BOM_GUST_PER REUNION_GUST REUNION_GUST_PER USA_SEAHGT USA_SEARAD_NE USA_SEARAD_SE USA_SEARAD_SW USA_SEARAD_NW STORM_SPEED STORM_DIR
1909288N14094 1909 58 NI BB NOT_NAMED 1909-10-15 00:00:00 TS 14.1000 94.3000 main 190 170 _________O____ -1 14.1000 94.3000 TC 64 8 312
1909288N14094 1909 58 NI BB NOT_NAMED 1909-10-15 03:00:00 TS 14.3601 94.0002 main 162 144 _________PO___ -1 14.4902 93.8503 TC 64 14.1000 94.3000 4 9 313
1909288N14094 1909 58 NI BB NOT_NAMED 1909-10-15 06:00:00 TS 14.7433 93.5853 main 150 139 _________OP___ -1 14.9000 93.4000 TC 64 14.5083 93.8631 4 12 314
1909288N14094 1909 58 NI BB NOT_NAMED 1909-10-15 09:00:00 TS 15.1626 93.1515 main 139 139 _________PP___ -1 15.3424 92.9499 TC 64 14.9229 93.4205 4 12 315
1909288N14094 1909 58 NI BB NOT_NAMED 1909-10-15 12:00:00 TS 15.5756 92.7338 main 166 166 _________OP___ -1 15.8000 92.5000 TC 64 15.3511 92.9676 4 12 315
1909288N14094 1909 58 NI BB NOT_NAMED 1909-10-15 15:00:00 TS 16.0212 92.2749 main 203 203 _________PO___ -1 16.2424 92.0497 TC 64 15.8000 92.5000 4 13 316
1909288N14094 1909 58 NI BB NOT_NAMED 1909-10-15 18:00:00 TS 16.4865 91.8089 main 262 262 _________OP___ -1 16.7000 91.6000 TC 64 16.2729 92.0178 4 13 317
1909288N14094 1909 58 NI BB NOT_NAMED 1909-10-15 21:00:00 TS 16.9827 91.3304 main 324 324 _________PP___ -1 17.2076 91.1201 TC 64 16.7578 91.5406 4 13 318
1909288N14094 1909 58 NI BB NOT_NAMED 1909-10-16 00:00:00 TS 17.4693 90.8965 main 340 340 _________OP___ -1 17.7000 90.7000 TC 64 17.2387 91.0929 4 12 322
1909288N14094 1909 58 NI BB NOT_NAMED 1909-10-16 03:00:00 TS 17.9074 90.5598 main 345 336 _________PO___ -1 18.1148 90.4196 TC 64 17.7000 90.7000 4 10 326
1909288N14094 1909 58 NI BB NOT_NAMED 1909-10-16 06:00:00 TS 18.3146 90.2917 main 336 326 _________OP___ -1 18.5000 90.2000 TC 64 18.1291 90.3834 4 10 328
1909288N14094 1909 58 NI BB NOT_NAMED 1909-10-16 09:00:00 TS 18.7222 90.0332 main 334 288 _________PP___ -1 18.9075 89.9425 TC 64 18.5368 90.1239 4 9 330
1909288N14094 1909 58 NI BB NOT_NAMED 1909-10-16 12:00:00 TS 19.1131 89.8012 main 288 240 _________OP___ -1 19.3000 89.7000 TC 64 18.9261 89.9024 4 9 331
1909288N14094 1909 58 NI BB NOT_NAMED 1909-10-16 15:00:00 TS 19.4787 89.5962 main 240 203 _________PO___ -1 19.6574 89.4923 TC 64 19.3000 89.7000 4 8 331
1909288N14094 1909 58 NI BB NOT_NAMED 1909-10-16 18:00:00 TS 19.8302 89.3766 main 203 156 _________OP___ -1 20.0000 89.3000 TC 64 19.6603 89.4531 4 8 329
1909288N14094 1909 58 NI BB NOT_NAMED 1909-10-16 21:00:00 TS 20.1788 89.1514 main 156 123 _________PP___ -1 20.3500 89.0776 TC 64 20.0075 89.2252 4 8 331
1909288N14094 1909 58 NI BB NOT_NAMED 1909-10-17 00:00:00 TS 20.5255 88.9673 main 123 78 _________OP___ -1 20.7000 88.9000 TC 64 20.3510 89.0346 4 7 338
1909288N14094 1909 58 NI BB NOT_NAMED 1909-10-17 03:00:00 TS 20.8712 88.8562 main 78 45 _________PO___ -1 21.0425 88.8124 TC 64 20.7000 88.9000 4 7 348
1909288N14094 1909 58 NI BB NOT_NAMED 1909-10-17 06:00:00 TS 21.2338 88.8110 main 45 10 _________OP___ -1 21.4000 88.8000 TC 64 21.0676 88.8219 4 8 356
1909288N14094 1909 58 NI BB NOT_NAMED 1909-10-17 09:00:00 TS 21.6174 88.8149 main 10 0 _________PP___ -1 21.7925 88.8275 TC 64 21.4423 88.8023 4 8 4
1909288N14094 1909 58 NI BB NOT_NAMED 1909-10-17 12:00:00 TS 22.0104 88.8658 main 0 0 _________OP___ -1 22.2000 88.9000 TC 64 21.8208 88.8315 4 8 9
1909288N14094 1909 58 NI BB NOT_NAMED 1909-10-17 15:00:00 TS 22.4037 88.9425 main 0 0 _________PO___ -1 22.6075 88.9850 TC 55 22.2000 88.9000 4 8 12
1909288N14094 1909 58 NI BB NOT_NAMED 1909-10-17 18:00:00 TS 22.7585 89.0420 main 0 0 _________OP___ -1 23.0000 89.1000 TC 47 22.5773 88.9985 4 7 16
1909288N14094 1909 58 NI BB NOT_NAMED 1909-10-17 21:00:00 TS 23.1156 89.1686 main 0 0 _________PP___ -1 23.3600 89.2423 TC 38 22.9527 89.1194 4 7 19
1909288N14094 1909 58 NI BB NOT_NAMED 1909-10-18 00:00:00 TS 23.4512 89.3038 main 0 0 _________OP___ -1 23.7000 89.4000 TC 30 23.3267 89.2556 4 6 20
1909288N14094 1909 58 NI BB NOT_NAMED 1909-10-18 03:00:00 NR 23.7000 89.4000 main 0 __________O___ -1 TC 23.7000 89.4000 1 5 20

About IBTrACS Database

This database is a web-friendly format of International Best Track Archive for Climate Stewardship (IBTrACS), a global best track data archive curated by NOAA dating back to 1842.

Updated: 2021-10-21